Time;durP1;ratioP1;P1;durP2;ratioP2;P2;SDS_P1;SDS_P2;PMS_P1;PMS_P2;Temp;Humidity;BMP_temperature;BMP_pressure;BME280_temperature;BME280_humidity;BME280_pressure;Samples;Min_cycle;Max_cycle;Signal;HPM_P1;HPM_P2
2023/03/26 00:01:39;;;;;;;2.50;1.20;;;;;;;7.11;74.41;97624.14;105018;1259;97897;-73
2023/03/26 00:04:07;;;;;;;2.50;1.40;;;;;;;7.09;74.00;97627.92;105129;1267;97926;-72
2023/03/26 00:06:37;;;;;;;1.80;1.10;;;;;;;7.05;74.58;97625.66;105261;1267;98166;-73
2023/03/26 00:09:08;;;;;;;3.20;1.50;;;;;;;7.04;74.20;97629.18;105202;1256;99098;-73
2023/03/26 00:11:35;;;;;;;2.60;1.50;;;;;;;7.05;74.46;97631.85;105052;1267;108069;-73
2023/03/26 00:14:04;;;;;;;2.10;1.50;;;;;;;7.07;74.22;97630.71;105197;1253;99215;-74
2023/03/26 00:16:35;;;;;;;2.40;1.50;;;;;;;7.09;74.05;97627.64;105060;1258;98298;-74
2023/03/26 00:19:06;;;;;;;2.50;1.60;;;;;;;7.13;73.39;97630.23;104965;1259;112266;-74
2023/03/26 00:21:34;;;;;;;3.80;1.70;;;;;;;7.15;73.13;97621.09;104919;1270;98155;-73
2023/03/26 00:24:05;;;;;;;2.40;1.40;;;;;;;7.17;73.42;97620.52;105032;1257;97926;-73
2023/03/26 00:26:37;;;;;;;2.90;1.50;;;;;;;7.14;73.30;97621.27;105086;1257;97995;-72
2023/03/26 00:29:05;;;;;;;2.70;1.40;;;;;;;7.12;73.12;97619.98;104994;1257;98098;-72
2023/03/26 00:31:33;;;;;;;3.60;1.70;;;;;;;7.09;73.17;97618.75;105102;1257;112238;-66
2023/03/26 00:34:02;;;;;;;3.20;1.20;;;;;;;7.08;73.12;97616.83;105095;1257;98873;-71
2023/03/26 00:36:30;;;;;;;2.40;1.90;;;;;;;7.06;73.31;97610.06;104909;1261;108377;-72
2023/03/26 00:38:57;;;;;;;2.20;1.30;;;;;;;7.06;73.15;97610.45;105017;1259;99308;-72
2023/03/26 00:41:25;;;;;;;2.70;1.60;;;;;;;7.06;73.36;97613.45;105045;1259;97970;-75
2023/03/26 00:43:55;;;;;;;2.80;1.90;;;;;;;7.07;73.37;97615.48;105031;1253;112340;-74
2023/03/26 00:46:28;;;;;;;2.40;1.40;;;;;;;7.09;72.93;97608.33;105128;1258;98827;-77
2023/03/26 00:49:03;;;;;;;2.50;1.30;;;;;;;7.13;72.80;97602.41;105014;1257;109278;-71
2023/03/26 00:51:30;;;;;;;3.70;1.60;;;;;;;7.13;72.73;97596.20;105077;1253;97890;-73
2023/03/26 00:53:57;;;;;;;2.40;1.20;;;;;;;7.14;72.61;97599.63;105044;1257;97996;-73
2023/03/26 00:56:25;;;;;;;2.40;1.60;;;;;;;7.13;72.62;97601.36;104975;1258;97953;-73
2023/03/26 00:58:52;;;;;;;2.00;1.70;;;;;;;7.10;72.81;97604.55;104988;1257;97928;-73
2023/03/26 01:01:27;;;;;;;3.90;2.10;;;;;;;7.06;72.83;97600.22;105048;1258;97919;-73
2023/03/26 01:04:00;;;;;;;2.60;1.90;;;;;;;6.99;73.19;97602.73;104864;1261;98082;-72
2023/03/26 01:06:38;;;;;;;2.50;1.10;;;;;;;6.92;73.39;97596.34;104690;1261;98191;-72
2023/03/26 01:09:18;;;;;;;3.50;1.50;;;;;;;6.87;73.19;97598.88;105023;1257;111004;-73
2023/03/26 01:11:47;;;;;;;2.20;1.30;;;;;;;6.82;73.29;97595.75;105011;1258;99136;-74
2023/03/26 01:14:24;;;;;;;4.40;1.30;;;;;;;6.77;73.57;97594.52;104890;1261;107066;-72
2023/03/26 01:17:03;;;;;;;2.80;1.50;;;;;;;6.71;73.63;97592.17;105031;1260;98415;-72
2023/03/26 01:19:50;;;;;;;1.80;0.80;;;;;;;6.66;73.80;97594.22;105087;1258;99216;-72
2023/03/26 01:22:23;;;;;;;3.30;1.80;;;;;;;6.63;73.79;97588.86;104898;1253;110760;-72
2023/03/26 01:24:55;;;;;;;3.10;1.70;;;;;;;6.62;73.96;97593.19;105019;1258;99155;-72
2023/03/26 01:27:34;;;;;;;2.20;1.30;;;;;;;6.63;74.19;97594.15;105075;1257;108135;-73
2023/03/26 01:30:26;;;;;;;2.50;1.40;;;;;;;6.63;74.07;97592.07;105017;1257;97932;-74
2023/03/26 01:33:18;;;;;;;2.80;1.70;;;;;;;6.64;74.09;97595.80;104929;1257;97931;-70
2023/03/26 01:36:28;;;;;;;2.20;1.00;;;;;;;6.63;74.28;97592.94;104935;1257;112226;-73
2023/03/26 01:39:24;;;;;;;3.10;1.40;;;;;;;6.60;74.21;97584.48;104601;1265;99510;-73
2023/03/26 01:41:57;;;;;;;2.40;1.50;;;;;;;6.56;74.69;97580.13;104461;1265;108372;-74
2023/03/26 01:44:49;;;;;;;2.40;1.40;;;;;;;6.52;74.19;97578.31;104374;1264;98111;-73
2023/03/26 01:47:17;;;;;;;3.10;1.80;;;;;;;6.48;74.59;97577.39;104379;1263;98720;-73
2023/03/26 01:49:44;;;;;;;3.60;1.70;;;;;;;6.43;74.41;97574.84;104599;1266;112336;-72
2023/03/26 01:52:18;;;;;;;2.90;1.40;;;;;;;6.39;74.65;97576.84;104567;1265;99229;-74
2023/03/26 01:54:46;;;;;;;3.00;1.80;;;;;;;6.39;74.83;97577.29;104538;1265;108657;-73
2023/03/26 01:57:37;;;;;;;2.60;1.70;;;;;;;6.40;74.98;97577.48;104378;1284;97942;-73
2023/03/26 02:00:18;;;;;;;1.90;1.10;;;;;;;6.39;74.97;97584.09;104471;1262;99567;-73
2023/03/26 02:02:58;;;;;;;2.10;1.30;;;;;;;6.42;74.99;97578.42;104317;1265;112283;-74
2023/03/26 02:05:34;;;;;;;1.80;1.20;;;;;;;6.42;74.87;97578.58;104464;1265;99348;-71
2023/03/26 02:08:15;;;;;;;1.80;1.40;;;;;;;6.40;75.02;97576.17;104506;1265;109860;-77
2023/03/26 02:10:46;;;;;;;2.10;1.30;;;;;;;6.38;74.71;97576.88;104475;1264;97967;-76
2023/03/26 02:13:14;;;;;;;3.20;1.30;;;;;;;6.38;74.86;97571.95;104573;1261;98108;-72
2023/03/26 02:15:54;;;;;;;3.30;1.30;;;;;;;6.37;75.21;97568.97;104841;1261;112161;-75
2023/03/26 02:18:22;;;;;;;1.40;1.10;;;;;;;6.36;75.24;97565.56;105033;1257;99161;-76
2023/03/26 02:20:54;;;;;;;2.80;1.40;;;;;;;6.36;75.54;97566.40;104937;1254;108666;-76
2023/03/26 02:23:21;;;;;;;3.40;1.30;;;;;;;6.39;75.39;97573.27;104869;1254;97923;-76
2023/03/26 02:25:49;;;;;;;2.60;1.60;;;;;;;6.43;74.96;97577.52;104994;1258;98433;-76
2023/03/26 02:28:15;;;;;;;1.90;1.40;;;;;;;6.47;75.05;97575.79;104942;1270;98031;-76
2023/03/26 02:30:44;;;;;;;3.10;1.30;;;;;;;6.51;74.99;97573.98;104983;1258;99211;-75
2023/03/26 02:33:14;;;;;;;2.30;1.50;;;;;;;6.54;74.91;97569.94;104898;1258;107942;-75
2023/03/26 02:35:44;;;;;;;3.20;1.70;;;;;;;6.56;75.00;97573.91;105041;1270;98597;-75
2023/03/26 02:38:13;;;;;;;4.60;1.60;;;;;;;6.56;75.01;97570.20;105060;1258;97995;-76
2023/03/26 02:40:40;;;;;;;2.20;1.30;;;;;;;6.55;75.76;97565.71;104998;1266;112151;-75
2023/03/26 02:43:07;;;;;;;3.40;1.40;;;;;;;6.54;75.25;97560.58;104948;1271;99277;-75
2023/03/26 02:45:34;;;;;;;2.90;1.30;;;;;;;6.52;75.30;97555.28;105032;1256;97938;-75
2023/03/26 02:48:02;;;;;;;5.00;1.40;;;;;;;6.51;75.12;97553.68;104907;1260;98041;-73
2023/03/26 02:50:31;;;;;;;2.10;1.10;;;;;;;6.50;75.24;97552.55;105051;1254;98006;-76
2023/03/26 02:52:59;;;;;;;2.20;0.80;;;;;;;6.48;75.48;97555.48;104963;1262;113037;-76
2023/03/26 02:55:27;;;;;;;1.70;1.20;;;;;;;6.49;75.42;97558.10;105034;1263;98112;-76
2023/03/26 02:57:55;;;;;;;3.00;1.40;;;;;;;6.52;75.52;97559.19;104964;1254;108521;-73
2023/03/26 03:00:22;;;;;;;2.40;1.40;;;;;;;6.56;75.09;97560.52;104722;1264;97969;-76
2023/03/26 03:02:49;;;;;;;1.40;1.10;;;;;;;6.60;75.15;97551.92;104998;1257;98037;-76
2023/03/26 03:05:17;;;;;;;2.60;1.10;;;;;;;6.63;75.06;97553.80;105055;1258;99240;-76
2023/03/26 03:07:45;;;;;;;1.60;1.00;;;;;;;6.65;75.70;97554.15;105177;1257;97906;-77
2023/03/26 03:10:14;;;;;;;1.40;0.90;;;;;;;6.66;75.08;97557.42;105017;1257;108301;-76
2023/03/26 03:12:42;;;;;;;2.00;1.30;;;;;;;6.64;75.64;97558.38;105110;1259;97929;-76
2023/03/26 03:15:10;;;;;;;2.50;1.30;;;;;;;6.64;75.62;97554.85;104923;1259;98030;-76
2023/03/26 03:17:37;;;;;;;0.90;0.70;;;;;;;6.62;75.82;97554.58;104715;1253;110254;-75
2023/03/26 03:20:08;;;;;;;2.50;1.10;;;;;;;6.58;76.04;97554.80;105015;1257;98933;-76
2023/03/26 03:22:35;;;;;;;3.80;1.40;;;;;;;6.55;76.00;97546.78;105035;1259;108626;-75
2023/03/26 03:25:04;;;;;;;1.30;1.00;;;;;;;6.51;75.90;97547.56;105034;1257;97920;-76
2023/03/26 03:27:31;;;;;;;1.70;1.20;;;;;;;6.49;76.05;97547.13;105047;1258;99762;-76
2023/03/26 03:29:58;;;;;;;3.60;1.20;;;;;;;6.48;75.92;97544.84;105049;1257;97924;-76
2023/03/26 03:32:26;;;;;;;1.90;1.20;;;;;;;6.49;76.03;97549.15;105128;1259;97916;-76
2023/03/26 03:34:53;;;;;;;4.50;2.80;;;;;;;6.49;75.77;97550.41;105055;1260;97984;-75
2023/03/26 03:37:20;;;;;;;3.50;1.80;;;;;;;6.52;76.02;97551.09;105164;1256;97927;-76
2023/03/26 03:39:47;;;;;;;2.20;1.40;;;;;;;6.54;75.50;97551.13;104939;1257;99209;-75
2023/03/26 03:42:15;;;;;;;2.20;1.30;;;;;;;6.57;75.95;97549.77;105074;1259;97879;-73
2023/03/26 03:44:42;;;;;;;2.40;1.50;;;;;;;6.58;75.73;97547.63;105027;1254;97819;-75
2023/03/26 03:47:12;;;;;;;2.70;1.50;;;;;;;6.55;75.77;97548.45;104948;1255;97971;-75
2023/03/26 03:49:40;;;;;;;5.70;1.50;;;;;;;6.54;75.78;97555.02;105170;1268;97985;-75
2023/03/26 03:52:07;;;;;;;2.90;1.40;;;;;;;6.52;75.82;97559.48;105102;1257;97981;-74
2023/03/26 03:54:34;;;;;;;2.30;1.40;;;;;;;6.49;75.64;97558.58;104961;1253;97978;-74
2023/03/26 03:57:02;;;;;;;2.80;1.10;;;;;;;6.49;75.76;97558.31;104913;1275;99573;-74
2023/03/26 03:59:29;;;;;;;3.10;1.70;;;;;;;6.49;75.48;97563.63;105132;1257;97895;-74
2023/03/26 04:01:56;;;;;;;2.30;1.70;;;;;;;6.52;75.23;97561.53;104622;1262;97951;-75
2023/03/26 04:04:24;;;;;;;3.30;1.30;;;;;;;6.56;74.90;97559.30;104594;1263;98125;-74
2023/03/26 04:06:52;;;;;;;3.70;1.30;;;;;;;6.59;74.99;97551.58;104609;1260;111531;-72
2023/03/26 04:09:18;;;;;;;1.90;1.10;;;;;;;6.61;74.83;97554.26;104601;1264;99215;-73
2023/03/26 04:11:46;;;;;;;1.80;0.80;;;;;;;6.63;74.65;97557.13;104577;1265;99251;-74
2023/03/26 04:14:13;;;;;;;3.20;1.10;;;;;;;6.63;74.60;97550.76;104594;1264;98008;-73
2023/03/26 04:16:40;;;;;;;2.30;1.00;;;;;;;6.63;74.37;97552.97;104678;1275;98086;-73
2023/03/26 04:19:08;;;;;;;2.50;1.10;;;;;;;6.62;74.39;97550.88;104607;1260;98308;-73
2023/03/26 04:21:36;;;;;;;1.80;1.00;;;;;;;6.60;74.58;97542.61;105010;1257;97997;-71
2023/03/26 04:24:04;;;;;;;2.30;1.40;;;;;;;6.59;74.59;97549.07;105230;1256;98012;-72
2023/03/26 04:26:31;;;;;;;3.00;1.40;;;;;;;6.57;74.65;97551.63;105205;1257;99133;-69
2023/03/26 04:29:02;;;;;;;2.00;1.50;;;;;;;6.54;74.75;97559.27;105131;1261;97933;-73
2023/03/26 04:31:29;;;;;;;3.40;1.40;;;;;;;6.51;74.88;97558.08;105218;1254;112253;-72
2023/03/26 04:34:12;;;;;;;1.80;1.10;;;;;;;6.51;74.43;97557.59;105097;1256;99122;-73
2023/03/26 04:36:41;;;;;;;2.10;1.00;;;;;;;6.52;74.88;97558.66;104993;1258;108691;-73
2023/03/26 04:39:12;;;;;;;1.20;1.10;;;;;;;6.53;74.94;97558.95;105224;1257;97904;-74
2023/03/26 04:41:39;;;;;;;4.80;1.00;;;;;;;6.56;74.70;97557.10;104783;1263;99682;-71
2023/03/26 04:44:06;;;;;;;2.00;0.90;;;;;;;6.60;74.39;97556.60;105129;1257;97922;-73
2023/03/26 04:46:33;;;;;;;2.90;1.40;;;;;;;6.63;74.20;97551.94;105096;1269;97908;-72
2023/03/26 04:49:01;;;;;;;3.30;1.40;;;;;;;6.64;74.22;97555.17;105163;1253;97959;-73
2023/03/26 04:51:37;;;;;;;2.20;1.40;;;;;;;6.63;74.36;97558.95;104716;1267;492958;-79
2023/03/26 04:54:06;;;;;;;3.10;1.30;;;;;;;6.62;74.18;97558.79;105287;1257;97921;-73
2023/03/26 04:56:50;;;;;;;1.70;1.10;;;;;;;6.60;73.87;97553.27;105027;1261;111350;-70
2023/03/26 04:59:24;;;;;;;2.40;1.90;;;;;;;6.60;74.15;97549.59;105235;1257;98905;-73
2023/03/26 05:01:52;;;;;;;3.60;1.90;;;;;;;6.57;74.38;97556.23;105241;1254;108726;-73
2023/03/26 05:04:20;;;;;;;3.10;1.40;;;;;;;6.56;74.24;97557.90;105233;1256;97945;-73
2023/03/26 05:06:47;;;;;;;5.90;1.80;;;;;;;6.55;74.26;97555.11;105007;1257;97922;-72
2023/03/26 05:09:14;;;;;;;3.70;2.20;;;;;;;6.55;74.05;97553.09;105058;1259;97999;-73
2023/03/26 05:11:42;;;;;;;3.90;2.40;;;;;;;6.57;73.78;97552.01;104965;1259;97929;-71
2023/03/26 05:14:09;;;;;;;6.10;2.90;;;;;;;6.59;73.85;97549.87;105077;1257;97918;-71
2023/03/26 05:16:38;;;;;;;4.20;2.30;;;;;;;6.62;73.53;97544.13;105099;1257;99273;-70
2023/03/26 05:19:05;;;;;;;2.30;0.90;;;;;;;6.67;73.17;97541.05;104828;1260;99701;-69
2023/03/26 05:21:33;;;;;;;2.00;1.30;;;;;;;6.71;73.40;97540.08;104922;1253;97865;-71
2023/03/26 05:24:01;;;;;;;2.10;1.10;;;;;;;6.74;73.23;97539.48;105053;1257;98982;-66
2023/03/26 05:26:28;;;;;;;1.40;1.10;;;;;;;6.77;73.40;97546.77;105026;1268;108272;-71
2023/03/26 05:28:55;;;;;;;3.00;1.30;;;;;;;6.78;73.29;97554.66;105118;1257;97986;-72
2023/03/26 05:31:23;;;;;;;4.90;2.00;;;;;;;6.81;73.32;97553.69;104991;1254;97904;-72
2023/03/26 05:33:51;;;;;;;5.00;1.90;;;;;;;6.81;73.13;97557.71;104732;1266;111265;-72
2023/03/26 05:36:18;;;;;;;4.60;1.30;;;;;;;6.81;73.14;97561.92;104996;1257;100527;-73
2023/03/26 05:38:48;;;;;;;2.50;1.30;;;;;;;6.79;73.23;97561.30;105051;1259;109706;-75
2023/03/26 05:41:16;;;;;;;3.90;1.50;;;;;;;6.78;73.21;97562.99;104979;1253;97996;-73
2023/03/26 05:43:44;;;;;;;3.40;1.40;;;;;;;6.81;73.16;97564.80;104917;1261;99688;-78
2023/03/26 05:46:12;;;;;;;3.50;1.30;;;;;;;6.83;72.89;97562.17;105094;1275;112181;-73
2023/03/26 05:48:40;;;;;;;2.40;1.00;;;;;;;6.85;72.94;97562.35;105139;1259;99213;-73
2023/03/26 05:51:08;;;;;;;2.70;1.10;;;;;;;6.89;72.84;97567.02;105115;1258;98003;-71
2023/03/26 05:53:35;;;;;;;4.10;1.80;;;;;;;6.93;72.71;97567.79;105015;1276;99110;-73
2023/03/26 05:56:03;;;;;;;2.20;1.20;;;;;;;6.98;72.32;97567.86;105064;1257;97932;-71
2023/03/26 05:58:35;;;;;;;1.60;1.00;;;;;;;7.01;72.43;97568.70;105173;1259;111858;-72
2023/03/26 06:01:15;;;;;;;2.90;1.10;;;;;;;7.02;72.21;97569.85;105024;1253;99229;-72
2023/03/26 06:03:44;;;;;;;3.10;1.20;;;;;;;7.02;72.16;97574.61;105025;1272;106609;-70
2023/03/26 06:06:15;;;;;;;2.50;1.20;;;;;;;7.01;72.26;97575.16;105020;1259;99235;-74
2023/03/26 06:08:45;;;;;;;1.80;1.10;;;;;;;7.00;72.16;97573.51;104950;1264;97907;-73
2023/03/26 06:11:13;;;;;;;;;;;;;;;7.00;72.59;97576.67;104915;1259;111921;-74
2023/03/26 06:13:41;;;;;;;1.80;0.80;;;;;;;7.00;72.48;97580.52;105209;1258;99123;-75
2023/03/26 06:16:10;;;;;;;2.40;1.20;;;;;;;7.04;72.22;97578.83;105067;1262;107245;-74
2023/03/26 06:18:53;;;;;;;2.70;0.90;;;;;;;7.10;72.07;97581.58;105290;1252;97974;-74
2023/03/26 06:21:24;;;;;;;4.40;1.20;;;;;;;7.14;72.26;97582.64;105242;1256;99117;-77
2023/03/26 06:23:52;;;;;;;3.00;1.20;;;;;;;7.18;72.27;97581.34;105226;1256;112252;-75
2023/03/26 06:26:19;;;;;;;2.30;0.90;;;;;;;7.21;72.32;97577.42;105000;1259;98061;-76
2023/03/26 06:28:47;;;;;;;1.30;1.00;;;;;;;7.24;71.81;97582.08;104982;1273;107543;-75
2023/03/26 06:31:16;;;;;;;2.00;1.10;;;;;;;7.30;71.75;97581.41;105240;1253;97931;-78
2023/03/26 06:33:43;;;;;;;1.90;1.20;;;;;;;7.37;71.34;97580.33;105118;1253;98102;-77
2023/03/26 06:36:10;;;;;;;3.50;1.30;;;;;;;7.51;71.77;97580.25;105090;1260;111773;-75
2023/03/26 06:38:38;;;;;;;3.10;1.10;;;;;;;7.67;71.43;97581.38;105243;1256;98003;-75
2023/03/26 06:41:06;;;;;;;4.90;2.20;;;;;;;7.78;70.88;97581.14;105024;1256;97990;-75
2023/03/26 06:43:35;;;;;;;2.20;1.10;;;;;;;7.82;70.35;97581.23;105032;1267;97954;-74
2023/03/26 06:46:03;;;;;;;2.30;1.30;;;;;;;7.82;70.37;97582.06;105174;1256;98821;-73
2023/03/26 06:48:30;;;;;;;4.20;1.60;;;;;;;7.85;70.78;97579.15;104981;1257;111297;-76
2023/03/26 06:51:04;;;;;;;2.70;1.30;;;;;;;7.90;70.35;97582.73;105144;1256;97944;-76
2023/03/26 06:53:39;;;;;;;1.50;0.90;;;;;;;7.96;69.98;97581.99;105289;1256;108618;-76
2023/03/26 06:56:11;;;;;;;2.40;1.20;;;;;;;7.97;70.19;97575.55;105266;1268;99199;-76
2023/03/26 06:58:49;;;;;;;3.90;1.40;;;;;;;7.99;69.92;97577.44;105246;1257;98211;-76
2023/03/26 07:01:17;;;;;;;1.90;1.20;;;;;;;8.10;70.25;97581.82;105194;1256;112378;-76
2023/03/26 07:03:44;;;;;;;1.50;1.00;;;;;;;8.18;69.48;97581.73;105526;1269;97909;-76
2023/03/26 07:06:11;;;;;;;3.50;1.50;;;;;;;8.20;69.23;97583.17;105151;1259;98861;-77
2023/03/26 07:08:39;;;;;;;4.90;1.80;;;;;;;8.25;69.32;97581.11;104989;1254;99206;-77
2023/03/26 07:11:06;;;;;;;3.60;1.90;;;;;;;8.37;68.95;97584.48;105030;1256;97912;-77
2023/03/26 07:13:33;;;;;;;3.70;2.10;;;;;;;8.49;69.13;97580.69;105071;1256;97931;-77
2023/03/26 07:16:01;;;;;;;4.60;1.60;;;;;;;8.56;68.89;97586.05;105075;1268;98468;-75
2023/03/26 07:18:28;;;;;;;3.20;1.40;;;;;;;8.60;69.13;97586.48;105236;1258;97928;-77
2023/03/26 07:20:56;;;;;;;4.40;1.70;;;;;;;8.63;68.16;97583.63;105051;1256;97996;-77
2023/03/26 07:23:24;;;;;;;3.00;1.40;;;;;;;8.62;68.19;97582.34;105037;1258;98428;-76
2023/03/26 07:25:51;;;;;;;2.10;1.30;;;;;;;8.65;68.58;97583.64;105088;1259;111791;-76
2023/03/26 07:28:32;;;;;;;3.60;1.30;;;;;;;8.66;67.32;97578.98;105256;1256;99011;-77
2023/03/26 07:31:33;;;;;;;2.20;1.20;;;;;;;8.69;67.90;97582.53;104951;1253;108633;-76
2023/03/26 07:34:03;;;;;;;2.70;1.50;;;;;;;8.74;67.71;97582.19;105125;1256;97999;-73
2023/03/26 07:36:47;;;;;;;2.30;1.40;;;;;;;8.77;68.05;97589.86;105149;1253;99047;-76
2023/03/26 07:39:43;;;;;;;5.20;1.70;;;;;;;8.88;67.94;97587.50;105279;1256;111584;-74
2023/03/26 07:42:27;;;;;;;1.80;1.20;;;;;;;9.05;67.33;97582.15;105011;1260;98001;-72
2023/03/26 07:45:11;;;;;;;2.30;1.30;;;;;;;9.24;66.60;97585.77;105207;1256;108802;-73
2023/03/26 07:47:41;;;;;;;2.60;1.30;;;;;;;9.42;65.98;97585.05;105172;1256;98660;-74
2023/03/26 07:50:17;;;;;;;3.20;1.40;;;;;;;9.62;65.54;97576.02;105177;1256;97944;-72
2023/03/26 07:52:45;;;;;;;2.30;1.30;;;;;;;10.00;66.44;97576.99;104920;1253;111252;-74
2023/03/26 07:55:14;;;;;;;1.70;1.20;;;;;;;10.26;63.43;97573.00;105112;1269;98024;-74
2023/03/26 07:58:16;;;;;;;6.10;1.60;;;;;;;10.29;62.33;97578.77;105045;1260;107658;-72
2023/03/26 08:00:55;;;;;;;3.60;1.20;;;;;;;10.35;62.67;97582.95;104945;1256;97904;-74
2023/03/26 08:03:29;;;;;;;2.40;1.30;;;;;;;10.39;62.32;97583.01;104832;1257;99170;-73
2023/03/26 08:06:07;;;;;;;3.90;1.70;;;;;;;10.51;63.20;97583.03;104837;1262;110769;-73
2023/03/26 08:08:44;;;;;;;4.80;1.60;;;;;;;10.60;61.88;97583.59;105248;1256;99118;-74
2023/03/26 08:11:33;;;;;;;1.70;1.20;;;;;;;10.58;61.23;97578.86;105201;1256;108512;-74
2023/03/26 08:14:18;;;;;;;2.70;1.20;;;;;;;10.60;61.72;97584.59;105251;1259;97935;-72
2023/03/26 08:16:55;;;;;;;3.90;1.60;;;;;;;10.80;61.33;97579.95;105255;1256;98085;-74
2023/03/26 08:19:28;;;;;;;3.40;1.50;;;;;;;11.03;61.28;97581.01;105260;1258;112225;-75
2023/03/26 08:22:05;;;;;;;1.90;1.30;;;;;;;11.22;61.20;97574.33;105181;1256;98964;-75
2023/03/26 08:24:46;;;;;;;3.20;1.70;;;;;;;11.49;60.48;97572.83;105154;1258;108684;-74
2023/03/26 08:27:36;;;;;;;3.70;1.60;;;;;;;11.76;60.60;97574.45;105153;1256;98049;-74
2023/03/26 08:30:16;;;;;;;3.50;1.40;;;;;;;12.13;59.66;97567.80;105131;1256;98027;-75
2023/03/26 08:32:52;;;;;;;2.20;1.20;;;;;;;12.45;58.27;97571.46;105011;1260;111468;-73
2023/03/26 08:35:20;;;;;;;5.20;1.70;;;;;;;12.66;57.20;97562.72;105069;1261;98553;-73
2023/03/26 08:37:47;;;;;;;3.30;1.70;;;;;;;12.79;56.99;97560.21;105102;1256;99225;-72
2023/03/26 08:40:44;;;;;;;3.20;1.20;;;;;;;13.07;56.86;97555.74;105253;1256;98809;-74
2023/03/26 08:43:42;;;;;;;2.00;1.10;;;;;;;13.48;55.73;97552.33;104539;1259;98139;-74
2023/03/26 08:46:29;;;;;;;2.60;1.10;;;;;;;13.83;55.40;97558.17;104529;1265;112546;-75
2023/03/26 08:49:26;;;;;;;1.90;1.10;;;;;;;14.24;52.98;97548.84;104583;1261;99246;-75
2023/03/26 08:52:33;;;;;;;2.50;1.10;;;;;;;14.54;52.76;97545.91;104518;1264;109836;-75
2023/03/26 08:55:15;;;;;;;3.70;1.30;;;;;;;14.56;51.53;97545.53;104578;1265;98188;-74
2023/03/26 08:58:20;;;;;;;2.00;1.00;;;;;;;14.52;51.87;97546.73;104603;1264;99354;-80
2023/03/26 09:01:16;;;;;;;2.80;1.40;;;;;;;14.31;51.51;97545.90;104656;1265;111892;-74
2023/03/26 09:04:12;;;;;;;3.30;1.20;;;;;;;14.08;52.28;97539.59;104663;1270;99712;-72
2023/03/26 09:06:47;;;;;;;2.20;1.30;;;;;;;13.99;52.66;97539.73;104195;1270;108840;-73
2023/03/26 09:09:29;;;;;;;2.60;1.30;;;;;;;13.80;52.13;97543.46;104187;1270;98122;-72
2023/03/26 09:12:34;;;;;;;3.30;1.30;;;;;;;13.51;52.43;97541.38;104200;1271;98221;-73
2023/03/26 09:15:27;;;;;;;2.60;1.10;;;;;;;13.33;53.53;97544.37;104164;1271;112237;-74
2023/03/26 09:17:56;;;;;;;4.00;2.40;;;;;;;13.27;53.58;97538.27;104200;1272;99269;-72
2023/03/26 09:20:42;;;;;;;3.20;1.80;;;;;;;13.20;53.98;97532.36;104285;1262;108808;-74
2023/03/26 09:23:43;;;;;;;2.50;1.30;;;;;;;13.18;53.69;97535.08;104483;1276;98461;-70
2023/03/26 09:26:23;;;;;;;3.30;1.00;;;;;;;13.02;53.08;97527.80;104441;1262;99149;-73
2023/03/26 09:29:08;;;;;;;3.40;1.60;;;;;;;12.98;53.20;97522.76;104660;1266;111458;-70
2023/03/26 09:32:01;;;;;;;3.10;1.20;;;;;;;12.95;53.93;97521.77;104554;1270;99220;-72
2023/03/26 09:34:31;;;;;;;2.80;1.40;;;;;;;12.91;53.49;97521.05;104610;1278;108611;-73
2023/03/26 09:37:20;;;;;;;2.80;1.60;;;;;;;12.81;53.44;97521.27;104490;1273;97948;-75
2023/03/26 09:40:17;;;;;;;3.10;1.70;;;;;;;12.78;54.01;97523.74;104454;1264;98321;-74
2023/03/26 09:43:15;;;;;;;5.10;1.90;;;;;;;12.82;54.41;97525.06;104676;1264;112241;-70
2023/03/26 09:45:51;;;;;;;3.00;1.70;;;;;;;12.74;54.63;97519.41;104987;1257;99187;-73
2023/03/26 09:48:57;;;;;;;4.20;2.30;;;;;;;12.78;54.62;97514.80;105161;1259;107527;-73
2023/03/26 09:51:24;;;;;;;4.70;2.00;;;;;;;12.87;54.07;97517.24;105155;1259;98168;-71
2023/03/26 09:54:30;;;;;;;3.80;1.90;;;;;;;12.93;54.02;97514.02;105846;1257;97937;-74
2023/03/26 09:57:07;;;;;;;4.10;1.50;;;;;;;13.00;54.53;97515.66;104768;1261;111700;-73
2023/03/26 09:59:50;;;;;;;3.30;1.50;;;;;;;12.90;53.77;97511.04;105032;1260;99548;-74
2023/03/26 10:02:36;;;;;;;5.80;2.70;;;;;;;12.91;54.67;97507.23;105021;1259;108549;-74
2023/03/26 10:05:28;;;;;;;3.30;1.50;;;;;;;12.91;54.20;97506.27;105053;1253;97912;-75
2023/03/26 10:08:23;;;;;;;3.10;1.70;;;;;;;12.83;54.72;97504.11;105026;1267;97915;-74
2023/03/26 10:10:56;;;;;;;3.60;2.20;;;;;;;12.80;53.95;97503.60;104589;1268;110944;-77
2023/03/26 10:13:42;;;;;;;2.60;1.50;;;;;;;13.01;53.33;97499.82;104328;1270;98037;-74
2023/03/26 10:16:28;;;;;;;2.80;1.10;;;;;;;13.28;52.06;97496.95;104561;1265;108619;-76
2023/03/26 10:19:18;;;;;;;1.60;1.00;;;;;;;13.36;52.35;97495.61;104597;1264;98955;-77
2023/03/26 10:22:10;;;;;;;3.90;1.70;;;;;;;13.49;51.83;97494.64;104657;1265;98766;-74
2023/03/26 10:25:17;;;;;;;2.70;1.50;;;;;;;13.40;50.68;97491.67;104618;1273;111256;-73
2023/03/26 10:28:06;;;;;;;2.10;0.80;;;;;;;13.38;51.64;97492.98;104127;1271;99253;-74
2023/03/26 10:30:47;;;;;;;1.20;0.90;;;;;;;13.67;52.10;97484.61;103974;1271;107214;-73
2023/03/26 10:33:36;;;;;;;3.40;1.10;;;;;;;14.26;50.71;97486.08;104119;1269;98035;-73
2023/03/26 10:36:21;;;;;;;4.60;3.10;;;;;;;14.69;49.85;97483.83;104137;1271;99106;-72
2023/03/26 10:39:08;;;;;;;3.10;1.90;;;;;;;14.66;48.45;97483.40;104173;1271;112303;-74
2023/03/26 10:41:44;;;;;;;3.40;1.50;;;;;;;14.58;49.07;97480.20;104130;1271;99199;-74
2023/03/26 10:44:44;;;;;;;3.20;2.10;;;;;;;14.52;48.69;97481.68;104100;1271;107616;-73
2023/03/26 10:47:23;;;;;;;5.30;2.00;;;;;;;14.47;49.01;97482.63;104054;1272;99307;-74
2023/03/26 10:50:11;;;;;;;5.20;3.80;;;;;;;14.46;48.91;97475.92;104393;1262;99371;-74
2023/03/26 10:53:51;;;;;;;1.60;0.90;;;;;;;14.62;47.64;97473.25;104495;1265;112268;-72
2023/03/26 10:56:31;;;;;;;3.10;1.80;;;;;;;14.37;46.52;97470.81;104204;1269;99342;-73
2023/03/26 10:59:04;;;;;;;1.30;0.70;;;;;;;14.10;46.92;97466.91;104075;1271;107360;-75
2023/03/26 11:01:31;;;;;;;2.80;2.10;;;;;;;14.15;48.12;97462.50;104110;1269;98035;-74
2023/03/26 11:04:31;;;;;;;2.00;1.50;;;;;;;14.62;49.02;97451.44;104229;1272;99135;-74
2023/03/26 11:07:06;;;;;;;3.90;2.20;;;;;;;15.60;47.64;97445.23;104515;1268;111819;-72
2023/03/26 11:09:52;;;;;;;2.30;1.10;;;;;;;16.19;46.17;97450.48;104475;1277;99085;-73
2023/03/26 11:12:22;;;;;;;2.20;1.30;;;;;;;16.56;43.03;97443.29;104338;1266;108602;-75
2023/03/26 11:15:15;;;;;;;1.80;1.10;;;;;;;16.88;43.04;97449.58;104504;1273;98111;-73
2023/03/26 11:18:00;;;;;;;2.70;1.10;;;;;;;16.90;42.42;97446.17;104338;1268;99703;-73
2023/03/26 11:21:00;;;;;;;12.70;5.70;;;;;;;16.61;43.06;97444.66;104467;1267;111856;-74
2023/03/26 11:24:15;;;;;;;2.30;1.10;;;;;;;16.21;43.20;97443.80;104561;1267;99151;-74
2023/03/26 11:26:54;;;;;;;2.30;1.00;;;;;;;16.04;44.03;97441.52;104545;1266;108423;-75
2023/03/26 11:29:52;;;;;;;2.80;1.30;;;;;;;16.11;43.81;97440.70;104987;1267;98035;-74
2023/03/26 11:32:36;;;;;;;2.30;1.00;;;;;;;16.22;43.13;97438.99;104886;1260;99170;-75
2023/03/26 11:35:18;;;;;;;3.00;1.40;;;;;;;16.23;43.03;97442.24;105057;1259;111934;-74
2023/03/26 11:38:32;;;;;;;3.70;1.90;;;;;;;16.20;43.70;97433.99;104984;1259;100312;-73
2023/03/26 11:41:02;;;;;;;3.80;1.40;;;;;;;16.13;43.48;97431.02;104931;1260;107752;-75
2023/03/26 11:43:35;;;;;;;2.60;1.00;;;;;;;16.06;43.77;97430.81;105038;1269;98806;-75
2023/03/26 11:46:13;;;;;;;1.90;1.20;;;;;;;15.90;43.63;97428.89;104982;1267;98840;-74
2023/03/26 11:48:49;;;;;;;2.80;1.10;;;;;;;15.58;44.85;97428.02;105096;1258;112545;-73
2023/03/26 11:51:31;;;;;;;2.20;1.40;;;;;;;15.44;45.65;97418.08;104992;1260;98038;-72
2023/03/26 11:54:01;;;;;;;3.30;1.50;;;;;;;15.19;45.90;97427.09;104856;1273;107781;-74
2023/03/26 11:56:44;;;;;;;3.10;1.30;;;;;;;15.05;45.04;97427.00;105071;1259;97951;-74
2023/03/26 11:59:37;;;;;;;2.60;1.30;;;;;;;14.95;45.93;97418.67;104962;1268;98328;-72
2023/03/26 12:02:31;;;;;;;3.20;1.50;;;;;;;14.81;46.62;97415.64;104984;1260;111814;-71
2023/03/26 12:05:17;;;;;;;3.30;1.70;;;;;;;14.63;46.07;97416.33;104788;1262;99247;-73
2023/03/26 12:07:45;;;;;;;2.50;1.50;;;;;;;14.38;46.11;97411.94;104629;1263;107185;-74
2023/03/26 12:10:27;;;;;;;3.30;1.60;;;;;;;14.17;47.38;97409.70;104950;1269;98111;-72